NCAR-RAP Real-Time Weather Data

Output produced by METARs form (14 June 2021  06:58 UTC)
found at http://weather.rap.ucar.edu/surface/
 
KOMA 140652Z 11003KT 10SM FEW250 22/16 A3003 RMK AO2 SLP161 T02170156
KOMA 140552Z 00000KT 10SM CLR 21/17 A3003 RMK AO2 SLP159 T02110172 10344 20211 403440144 53007
KOMA 140452Z 00000KT 10SM CLR 22/17 A3002 RMK AO2 SLP156 T02170172
KOMA 140352Z 00000KT 10SM CLR 24/17 A3001 RMK AO2 SLP153 T02390172
KOMA 140252Z 00000KT 10SM SCT200 26/19 A3001 RMK AO2 SLP152 T02560189 53002
KOMA 140152Z 00000KT 10SM BKN200 28/18 A3000 RMK AO2 SLP150 T02830178
KOMA 140052Z 25003KT 10SM SCT200 33/13 A3000 RMK AO2 SLP149 T03280128
KOMA 132352Z 29005KT 10SM SCT200 34/09 A3000 RMK AO2 SLP151 T03390094 10344 20311 56011
KOMA 132252Z 24003KT 10SM SCT200 34/08 A3001 RMK AO2 SLP153 T03390083
KOMA 132152Z VRB03KT 10SM SCT200 34/09 A3003 RMK AO2 SLP159 T03390089
KOMA 132052Z 22006KT 10SM FEW250 33/09 A3004 RMK AO2 SLP162 T03330089 56022
KOMA 131952Z 17007KT 10SM FEW250 32/10 A3005 RMK AO2 SLP168 T03220100
KOMA 131852Z 21008KT 10SM FEW250 32/10 A3008 RMK AO2 SLP177 T03220100
KOMA 131752Z VRB03KT 10SM FEW250 31/10 A3010 RMK AO2 SLP185 T03110100 10311 20167 58002
KOMA 131652Z 18004KT 10SM CLR 30/09 A3012 RMK AO2 SLP189 T03000094
KOMA 131552Z 18006KT 10SM CLR 28/11 A3012 RMK AO2 SLP191 T02830106
KOMA 131452Z 16004KT 10SM CLR 27/12 A3011 RMK AO2 SLP187 T02670117 51006
KOMA 131352Z 14003KT 10SM CLR 23/14 A3011 RMK AO2 SLP187 T02280144
KOMA 131252Z 00000KT 10SM FEW250 19/16 A3010 RMK AO2 SLP183 T01940156
KOMA 131152Z 00000KT 10SM FEW250 17/14 A3009 RMK AO2 SLP182 T01670139 10194 20144 53011